sensor_id;sensor_type;location;lat;lon;timestamp;P1;durP1;ratioP1;P2;durP2;ratioP2
52432;SDS011;38352;53.244;6.594;2022-09-21T00:01:17;12.13;;;4.47;;
52432;SDS011;38352;53.244;6.594;2022-09-21T00:03:44;12.30;;;4.50;;
52432;SDS011;38352;53.244;6.594;2022-09-21T00:08:37;10.43;;;4.30;;
52432;SDS011;38352;53.244;6.594;2022-09-21T00:11:03;6.82;;;3.45;;
52432;SDS011;38352;53.244;6.594;2022-09-21T00:13:30;9.00;;;3.47;;
52432;SDS011;38352;53.244;6.594;2022-09-21T00:15:57;7.15;;;3.13;;
52432;SDS011;38352;53.244;6.594;2022-09-21T00:18:23;6.68;;;3.40;;
52432;SDS011;38352;53.244;6.594;2022-09-21T00:20:49;7.35;;;3.67;;
52432;SDS011;38352;53.244;6.594;2022-09-21T00:23:17;9.73;;;3.90;;
52432;SDS011;38352;53.244;6.594;2022-09-21T00:25:43;9.02;;;3.42;;
52432;SDS011;38352;53.244;6.594;2022-09-21T00:28:09;8.43;;;3.70;;
52432;SDS011;38352;53.244;6.594;2022-09-21T00:30:36;7.90;;;4.05;;
52432;SDS011;38352;53.244;6.594;2022-09-21T00:33:02;7.93;;;3.65;;
52432;SDS011;38352;53.244;6.594;2022-09-21T00:35:28;8.00;;;4.05;;
52432;SDS011;38352;53.244;6.594;2022-09-21T00:37:54;8.70;;;3.90;;
52432;SDS011;38352;53.244;6.594;2022-09-21T00:40:20;7.55;;;3.42;;
52432;SDS011;38352;53.244;6.594;2022-09-21T00:42:46;7.75;;;4.13;;
52432;SDS011;38352;53.244;6.594;2022-09-21T00:45:13;8.88;;;3.17;;
52432;SDS011;38352;53.244;6.594;2022-09-21T00:47:46;9.27;;;3.88;;
52432;SDS011;38352;53.244;6.594;2022-09-21T00:50:15;11.23;;;3.72;;
52432;SDS011;38352;53.244;6.594;2022-09-21T00:52:42;5.93;;;3.30;;
52432;SDS011;38352;53.244;6.594;2022-09-21T00:55:53;7.60;;;3.50;;
52432;SDS011;38352;53.244;6.594;2022-09-21T00:58:05;8.50;;;3.60;;
52432;SDS011;38352;53.244;6.594;2022-09-21T01:00:37;9.15;;;3.78;;
52432;SDS011;38352;53.244;6.594;2022-09-21T01:03:04;8.80;;;3.55;;
52432;SDS011;38352;53.244;6.594;2022-09-21T01:05:31;6.50;;;2.92;;
52432;SDS011;38352;53.244;6.594;2022-09-21T01:07:58;6.07;;;2.70;;
52432;SDS011;38352;53.244;6.594;2022-09-21T01:10:26;6.03;;;2.90;;
52432;SDS011;38352;53.244;6.594;2022-09-21T01:15:38;9.02;;;3.35;;
52432;SDS011;38352;53.244;6.594;2022-09-21T01:23:28;8.65;;;3.97;;
52432;SDS011;38352;53.244;6.594;2022-09-21T01:25:58;6.53;;;3.60;;
52432;SDS011;38352;53.244;6.594;2022-09-21T01:30:58;6.63;;;3.85;;
52432;SDS011;38352;53.244;6.594;2022-09-21T01:33:41;7.75;;;3.67;;
52432;SDS011;38352;53.244;6.594;2022-09-21T01:36:14;8.98;;;4.00;;
52432;SDS011;38352;53.244;6.594;2022-09-21T01:38:43;10.25;;;4.35;;
52432;SDS011;38352;53.244;6.594;2022-09-21T01:41:11;8.27;;;3.80;;
52432;SDS011;38352;53.244;6.594;2022-09-21T01:43:39;15.07;;;4.82;;
52432;SDS011;38352;53.244;6.594;2022-09-21T01:46:10;10.27;;;4.00;;
52432;SDS011;38352;53.244;6.594;2022-09-21T01:48:38;9.60;;;4.40;;
52432;SDS011;38352;53.244;6.594;2022-09-21T01:51:06;10.57;;;4.43;;
52432;SDS011;38352;53.244;6.594;2022-09-21T01:53:44;6.78;;;3.85;;
52432;SDS011;38352;53.244;6.594;2022-09-21T01:56:14;11.05;;;3.72;;
52432;SDS011;38352;53.244;6.594;2022-09-21T01:58:51;10.00;;;4.00;;
52432;SDS011;38352;53.244;6.594;2022-09-21T02:01:20;10.75;;;4.78;;
52432;SDS011;38352;53.244;6.594;2022-09-21T02:03:49;13.15;;;4.50;;
52432;SDS011;38352;53.244;6.594;2022-09-21T02:06:17;10.35;;;4.30;;
52432;SDS011;38352;53.244;6.594;2022-09-21T02:08:43;8.00;;;4.03;;
52432;SDS011;38352;53.244;6.594;2022-09-21T02:11:10;7.82;;;3.90;;
52432;SDS011;38352;53.244;6.594;2022-09-21T02:13:38;6.85;;;3.83;;
52432;SDS011;38352;53.244;6.594;2022-09-21T02:21:01;7.30;;;4.25;;
52432;SDS011;38352;53.244;6.594;2022-09-21T02:23:34;9.10;;;3.58;;
52432;SDS011;38352;53.244;6.594;2022-09-21T02:26:03;10.27;;;4.18;;
52432;SDS011;38352;53.244;6.594;2022-09-21T02:28:50;6.82;;;3.92;;
52432;SDS011;38352;53.244;6.594;2022-09-21T02:34:24;8.93;;;4.13;;
52432;SDS011;38352;53.244;6.594;2022-09-21T02:39:58;9.30;;;4.68;;
52432;SDS011;38352;53.244;6.594;2022-09-21T02:42:33;10.80;;;4.32;;
52432;SDS011;38352;53.244;6.594;2022-09-21T02:45:20;9.70;;;4.53;;
52432;SDS011;38352;53.244;6.594;2022-09-21T02:50:29;9.60;;;4.93;;
52432;SDS011;38352;53.244;6.594;2022-09-21T02:52:57;8.40;;;4.50;;
52432;SDS011;38352;53.244;6.594;2022-09-21T02:55:24;8.45;;;4.15;;
52432;SDS011;38352;53.244;6.594;2022-09-21T02:57:50;9.13;;;4.40;;
52432;SDS011;38352;53.244;6.594;2022-09-21T03:00:18;9.70;;;5.18;;
52432;SDS011;38352;53.244;6.594;2022-09-21T03:02:44;12.40;;;5.40;;
52432;SDS011;38352;53.244;6.594;2022-09-21T03:05:11;7.30;;;4.40;;
52432;SDS011;38352;53.244;6.594;2022-09-21T03:07:37;10.13;;;5.35;;
52432;SDS011;38352;53.244;6.594;2022-09-21T03:10:04;8.40;;;4.57;;
52432;SDS011;38352;53.244;6.594;2022-09-21T03:12:30;7.90;;;4.05;;
52432;SDS011;38352;53.244;6.594;2022-09-21T03:14:56;7.75;;;4.00;;
52432;SDS011;38352;53.244;6.594;2022-09-21T03:17:23;6.68;;;3.97;;
52432;SDS011;38352;53.244;6.594;2022-09-21T03:19:50;8.65;;;4.57;;
52432;SDS011;38352;53.244;6.594;2022-09-21T03:22:18;8.43;;;4.63;;
52432;SDS011;38352;53.244;6.594;2022-09-21T03:24:45;10.25;;;4.45;;
52432;SDS011;38352;53.244;6.594;2022-09-21T03:27:11;10.15;;;4.65;;
52432;SDS011;38352;53.244;6.594;2022-09-21T03:29:38;12.52;;;4.65;;
52432;SDS011;38352;53.244;6.594;2022-09-21T03:32:04;13.10;;;4.55;;
52432;SDS011;38352;53.244;6.594;2022-09-21T03:34:30;11.10;;;4.80;;
52432;SDS011;38352;53.244;6.594;2022-09-21T03:37:01;10.25;;;4.72;;
52432;SDS011;38352;53.244;6.594;2022-09-21T03:39:28;9.27;;;4.32;;
52432;SDS011;38352;53.244;6.594;2022-09-21T03:41:54;8.60;;;4.45;;
52432;SDS011;38352;53.244;6.594;2022-09-21T03:44:21;11.30;;;4.70;;
52432;SDS011;38352;53.244;6.594;2022-09-21T03:46:47;8.00;;;4.75;;
52432;SDS011;38352;53.244;6.594;2022-09-21T03:49:14;8.40;;;4.72;;
52432;SDS011;38352;53.244;6.594;2022-09-21T03:51:40;10.93;;;4.57;;
52432;SDS011;38352;53.244;6.594;2022-09-21T03:54:07;7.63;;;4.40;;
52432;SDS011;38352;53.244;6.594;2022-09-21T03:56:33;8.45;;;4.20;;
52432;SDS011;38352;53.244;6.594;2022-09-21T03:58:59;9.82;;;4.93;;
52432;SDS011;38352;53.244;6.594;2022-09-21T04:01:25;12.13;;;4.65;;
52432;SDS011;38352;53.244;6.594;2022-09-21T04:03:51;6.97;;;4.63;;
52432;SDS011;38352;53.244;6.594;2022-09-21T04:06:17;9.38;;;4.18;;
52432;SDS011;38352;53.244;6.594;2022-09-21T04:08:44;9.35;;;4.60;;
52432;SDS011;38352;53.244;6.594;2022-09-21T04:11:10;7.20;;;4.20;;
52432;SDS011;38352;53.244;6.594;2022-09-21T04:13:37;9.75;;;4.30;;
52432;SDS011;38352;53.244;6.594;2022-09-21T04:16:03;7.97;;;4.47;;
52432;SDS011;38352;53.244;6.594;2022-09-21T04:18:30;7.15;;;4.18;;
52432;SDS011;38352;53.244;6.594;2022-09-21T04:20:56;9.43;;;4.03;;
52432;SDS011;38352;53.244;6.594;2022-09-21T04:23:23;8.95;;;3.40;;
52432;SDS011;38352;53.244;6.594;2022-09-21T04:25:49;8.00;;;3.88;;
52432;SDS011;38352;53.244;6.594;2022-09-21T04:28:18;7.93;;;4.00;;
52432;SDS011;38352;53.244;6.594;2022-09-21T04:30:44;9.23;;;4.32;;
52432;SDS011;38352;53.244;6.594;2022-09-21T04:33:10;7.60;;;4.20;;
52432;SDS011;38352;53.244;6.594;2022-09-21T04:35:36;8.05;;;4.03;;
52432;SDS011;38352;53.244;6.594;2022-09-21T04:38:03;6.07;;;3.53;;
52432;SDS011;38352;53.244;6.594;2022-09-21T04:40:29;9.73;;;3.88;;
52432;SDS011;38352;53.244;6.594;2022-09-21T04:42:55;10.50;;;4.13;;
52432;SDS011;38352;53.244;6.594;2022-09-21T04:45:22;5.93;;;3.40;;
52432;SDS011;38352;53.244;6.594;2022-09-21T04:47:49;8.32;;;4.50;;
52432;SDS011;38352;53.244;6.594;2022-09-21T04:50:15;6.20;;;3.70;;
52432;SDS011;38352;53.244;6.594;2022-09-21T04:52:43;7.95;;;3.60;;
52432;SDS011;38352;53.244;6.594;2022-09-21T04:55:09;8.18;;;3.88;;
52432;SDS011;38352;53.244;6.594;2022-09-21T04:57:35;8.98;;;4.13;;
52432;SDS011;38352;53.244;6.594;2022-09-21T05:00:03;7.35;;;4.13;;
52432;SDS011;38352;53.244;6.594;2022-09-21T05:02:29;7.88;;;3.75;;
52432;SDS011;38352;53.244;6.594;2022-09-21T05:04:55;10.73;;;4.38;;
52432;SDS011;38352;53.244;6.594;2022-09-21T05:07:21;10.02;;;4.10;;
52432;SDS011;38352;53.244;6.594;2022-09-21T05:09:47;7.25;;;4.45;;
52432;SDS011;38352;53.244;6.594;2022-09-21T05:12:29;8.45;;;3.80;;
52432;SDS011;38352;53.244;6.594;2022-09-21T05:14:56;11.68;;;4.13;;
52432;SDS011;38352;53.244;6.594;2022-09-21T05:17:22;10.73;;;4.13;;
52432;SDS011;38352;53.244;6.594;2022-09-21T05:19:48;9.63;;;3.72;;
52432;SDS011;38352;53.244;6.594;2022-09-21T05:22:15;8.73;;;3.75;;
52432;SDS011;38352;53.244;6.594;2022-09-21T05:24:41;10.52;;;4.07;;
52432;SDS011;38352;53.244;6.594;2022-09-21T05:27:07;7.78;;;3.47;;
52432;SDS011;38352;53.244;6.594;2022-09-21T05:29:33;7.53;;;3.65;;
52432;SDS011;38352;53.244;6.594;2022-09-21T05:34:56;7.20;;;3.22;;
52432;SDS011;38352;53.244;6.594;2022-09-21T05:37:31;8.75;;;3.85;;
52432;SDS011;38352;53.244;6.594;2022-09-21T05:40:02;7.65;;;3.30;;
52432;SDS011;38352;53.244;6.594;2022-09-21T05:42:31;8.40;;;3.67;;
52432;SDS011;38352;53.244;6.594;2022-09-21T05:44:58;7.15;;;3.47;;
52432;SDS011;38352;53.244;6.594;2022-09-21T06:04:44;7.28;;;3.90;;
52432;SDS011;38352;53.244;6.594;2022-09-21T06:07:11;9.88;;;5.03;;
52432;SDS011;38352;53.244;6.594;2022-09-21T06:09:37;8.75;;;4.47;;
52432;SDS011;38352;53.244;6.594;2022-09-21T06:12:03;9.20;;;4.78;;
52432;SDS011;38352;53.244;6.594;2022-09-21T06:14:30;10.40;;;4.18;;
52432;SDS011;38352;53.244;6.594;2022-09-21T06:16:56;8.43;;;4.10;;
52432;SDS011;38352;53.244;6.594;2022-09-21T06:19:22;8.50;;;3.55;;
52432;SDS011;38352;53.244;6.594;2022-09-21T06:21:48;8.55;;;3.92;;
52432;SDS011;38352;53.244;6.594;2022-09-21T06:24:14;7.03;;;3.28;;
52432;SDS011;38352;53.244;6.594;2022-09-21T06:26:40;8.18;;;3.53;;
52432;SDS011;38352;53.244;6.594;2022-09-21T06:29:07;7.22;;;4.28;;
52432;SDS011;38352;53.244;6.594;2022-09-21T06:31:33;11.20;;;3.75;;
52432;SDS011;38352;53.244;6.594;2022-09-21T06:33:59;9.18;;;3.55;;
52432;SDS011;38352;53.244;6.594;2022-09-21T06:36:25;7.38;;;3.50;;
52432;SDS011;38352;53.244;6.594;2022-09-21T06:38:51;8.93;;;3.55;;
52432;SDS011;38352;53.244;6.594;2022-09-21T06:41:17;8.63;;;3.97;;
52432;SDS011;38352;53.244;6.594;2022-09-21T06:43:43;9.88;;;3.90;;
52432;SDS011;38352;53.244;6.594;2022-09-21T06:46:09;7.35;;;3.50;;
52432;SDS011;38352;53.244;6.594;2022-09-21T06:48:35;9.48;;;3.67;;
52432;SDS011;38352;53.244;6.594;2022-09-21T06:51:03;10.18;;;4.15;;
52432;SDS011;38352;53.244;6.594;2022-09-21T06:53:30;9.73;;;4.35;;
52432;SDS011;38352;53.244;6.594;2022-09-21T06:56:14;9.85;;;4.80;;
52432;SDS011;38352;53.244;6.594;2022-09-21T06:58:40;8.35;;;4.20;;
52432;SDS011;38352;53.244;6.594;2022-09-21T07:01:07;10.88;;;4.78;;
52432;SDS011;38352;53.244;6.594;2022-09-21T07:03:34;12.32;;;5.05;;
52432;SDS011;38352;53.244;6.594;2022-09-21T07:06:00;10.63;;;4.82;;
52432;SDS011;38352;53.244;6.594;2022-09-21T07:08:26;10.93;;;5.25;;
52432;SDS011;38352;53.244;6.594;2022-09-21T07:10:52;8.77;;;5.20;;
52432;SDS011;38352;53.244;6.594;2022-09-21T07:13:18;10.70;;;5.30;;
52432;SDS011;38352;53.244;6.594;2022-09-21T07:15:44;11.90;;;4.93;;
52432;SDS011;38352;53.244;6.594;2022-09-21T07:18:11;9.80;;;5.15;;
52432;SDS011;38352;53.244;6.594;2022-09-21T07:20:37;12.48;;;5.32;;
52432;SDS011;38352;53.244;6.594;2022-09-21T07:23:23;10.05;;;5.15;;
52432;SDS011;38352;53.244;6.594;2022-09-21T07:28:16;13.43;;;4.43;;
52432;SDS011;38352;53.244;6.594;2022-09-21T07:30:42;16.17;;;4.60;;
52432;SDS011;38352;53.244;6.594;2022-09-21T07:33:09;12.75;;;4.38;;
52432;SDS011;38352;53.244;6.594;2022-09-21T07:35:35;10.80;;;3.95;;
52432;SDS011;38352;53.244;6.594;2022-09-21T07:38:02;14.07;;;4.05;;
52432;SDS011;38352;53.244;6.594;2022-09-21T07:40:28;14.20;;;3.70;;
52432;SDS011;38352;53.244;6.594;2022-09-21T07:42:58;12.57;;;4.10;;
52432;SDS011;38352;53.244;6.594;2022-09-21T07:45:25;13.20;;;3.47;;
52432;SDS011;38352;53.244;6.594;2022-09-21T07:47:51;16.27;;;3.83;;
52432;SDS011;38352;53.244;6.594;2022-09-21T07:50:20;12.00;;;3.50;;
52432;SDS011;38352;53.244;6.594;2022-09-21T07:52:47;10.23;;;2.72;;
52432;SDS011;38352;53.244;6.594;2022-09-21T07:55:13;8.23;;;3.15;;
52432;SDS011;38352;53.244;6.594;2022-09-21T07:57:39;10.40;;;3.97;;
52432;SDS011;38352;53.244;6.594;2022-09-21T08:00:25;9.55;;;2.80;;
52432;SDS011;38352;53.244;6.594;2022-09-21T08:02:53;8.05;;;2.75;;
52432;SDS011;38352;53.244;6.594;2022-09-21T08:05:19;8.90;;;2.92;;
52432;SDS011;38352;53.244;6.594;2022-09-21T08:07:45;8.95;;;2.40;;
52432;SDS011;38352;53.244;6.594;2022-09-21T08:10:12;8.20;;;2.58;;
52432;SDS011;38352;53.244;6.594;2022-09-21T08:12:38;8.45;;;1.80;;
52432;SDS011;38352;53.244;6.594;2022-09-21T08:15:04;10.07;;;2.25;;
52432;SDS011;38352;53.244;6.594;2022-09-21T08:17:31;10.48;;;1.80;;
52432;SDS011;38352;53.244;6.594;2022-09-21T08:19:57;8.93;;;1.55;;
52432;SDS011;38352;53.244;6.594;2022-09-21T08:22:23;5.63;;;1.73;;
52432;SDS011;38352;53.244;6.594;2022-09-21T08:24:50;7.18;;;1.50;;
52432;SDS011;38352;53.244;6.594;2022-09-21T08:27:16;8.27;;;2.33;;
52432;SDS011;38352;53.244;6.594;2022-09-21T08:29:44;7.97;;;1.80;;
52432;SDS011;38352;53.244;6.594;2022-09-21T08:32:10;5.88;;;1.70;;
52432;SDS011;38352;53.244;6.594;2022-09-21T08:34:37;4.82;;;1.40;;
52432;SDS011;38352;53.244;6.594;2022-09-21T08:37:03;10.63;;;2.55;;
52432;SDS011;38352;53.244;6.594;2022-09-21T08:39:29;5.72;;;1.55;;
52432;SDS011;38352;53.244;6.594;2022-09-21T08:42:09;3.97;;;1.25;;
52432;SDS011;38352;53.244;6.594;2022-09-21T08:44:40;8.27;;;1.85;;
52432;SDS011;38352;53.244;6.594;2022-09-21T08:47:12;7.63;;;1.48;;
52432;SDS011;38352;53.244;6.594;2022-09-21T08:49:40;7.60;;;1.52;;
52432;SDS011;38352;53.244;6.594;2022-09-21T08:52:10;5.18;;;1.35;;
52432;SDS011;38352;53.244;6.594;2022-09-21T08:54:46;5.10;;;1.30;;
52432;SDS011;38352;53.244;6.594;2022-09-21T08:57:13;6.05;;;1.45;;
52432;SDS011;38352;53.244;6.594;2022-09-21T08:59:42;4.43;;;1.20;;
52432;SDS011;38352;53.244;6.594;2022-09-21T09:15:25;6.15;;;1.25;;
52432;SDS011;38352;53.244;6.594;2022-09-21T09:20:33;8.38;;;1.85;;
52432;SDS011;38352;53.244;6.594;2022-09-21T09:23:15;2.70;;;1.02;;
52432;SDS011;38352;53.244;6.594;2022-09-21T09:25:45;3.88;;;1.17;;
52432;SDS011;38352;53.244;6.594;2022-09-21T09:33:43;5.65;;;1.40;;
52432;SDS011;38352;53.244;6.594;2022-09-21T09:36:10;8.38;;;1.45;;
52432;SDS011;38352;53.244;6.594;2022-09-21T09:51:35;3.83;;;1.10;;
52432;SDS011;38352;53.244;6.594;2022-09-21T09:54:04;3.65;;;1.00;;
52432;SDS011;38352;53.244;6.594;2022-09-21T09:56:30;4.20;;;0.93;;
52432;SDS011;38352;53.244;6.594;2022-09-21T09:58:57;3.65;;;1.23;;
52432;SDS011;38352;53.244;6.594;2022-09-21T10:01:45;3.47;;;1.23;;
52432;SDS011;38352;53.244;6.594;2022-09-21T10:04:15;4.75;;;1.55;;
52432;SDS011;38352;53.244;6.594;2022-09-21T10:06:41;4.22;;;1.00;;
52432;SDS011;38352;53.244;6.594;2022-09-21T10:09:28;4.13;;;1.30;;
52432;SDS011;38352;53.244;6.594;2022-09-21T10:11:56;4.43;;;1.23;;
52432;SDS011;38352;53.244;6.594;2022-09-21T10:14:23;6.53;;;1.33;;
52432;SDS011;38352;53.244;6.594;2022-09-21T10:16:50;5.97;;;0.85;;
52432;SDS011;38352;53.244;6.594;2022-09-21T10:19:21;11.73;;;1.15;;
52432;SDS011;38352;53.244;6.594;2022-09-21T10:21:48;4.38;;;0.90;;
52432;SDS011;38352;53.244;6.594;2022-09-21T10:24:19;4.95;;;1.02;;
52432;SDS011;38352;53.244;6.594;2022-09-21T10:26:54;6.53;;;1.38;;
52432;SDS011;38352;53.244;6.594;2022-09-21T10:31:54;8.05;;;1.45;;
52432;SDS011;38352;53.244;6.594;2022-09-21T10:34:24;3.47;;;0.95;;
52432;SDS011;38352;53.244;6.594;2022-09-21T10:36:52;6.50;;;1.10;;
52432;SDS011;38352;53.244;6.594;2022-09-21T10:41:49;5.63;;;1.15;;
52432;SDS011;38352;53.244;6.594;2022-09-21T10:44:17;7.25;;;1.55;;
52432;SDS011;38352;53.244;6.594;2022-09-21T10:46:44;6.43;;;1.50;;
52432;SDS011;38352;53.244;6.594;2022-09-21T10:49:14;4.32;;;1.00;;
52432;SDS011;38352;53.244;6.594;2022-09-21T10:51:42;4.90;;;1.33;;
52432;SDS011;38352;53.244;6.594;2022-09-21T10:54:09;2.22;;;0.77;;
52432;SDS011;38352;53.244;6.594;2022-09-21T10:56:35;5.47;;;1.17;;
52432;SDS011;38352;53.244;6.594;2022-09-21T10:59:09;3.53;;;1.00;;
52432;SDS011;38352;53.244;6.594;2022-09-21T11:01:41;3.60;;;0.90;;
52432;SDS011;38352;53.244;6.594;2022-09-21T11:04:10;4.03;;;0.70;;
52432;SDS011;38352;53.244;6.594;2022-09-21T11:06:41;3.85;;;0.88;;
52432;SDS011;38352;53.244;6.594;2022-09-21T11:09:17;3.45;;;0.85;;
52432;SDS011;38352;53.244;6.594;2022-09-21T11:12:06;3.22;;;1.13;;
52432;SDS011;38352;53.244;6.594;2022-09-21T11:14:40;5.93;;;1.15;;
52432;SDS011;38352;53.244;6.594;2022-09-21T11:19:55;3.88;;;0.77;;
52432;SDS011;38352;53.244;6.594;2022-09-21T11:22:37;3.50;;;0.77;;
52432;SDS011;38352;53.244;6.594;2022-09-21T11:25:19;4.47;;;0.80;;
52432;SDS011;38352;53.244;6.594;2022-09-21T11:27:50;4.85;;;1.25;;
52432;SDS011;38352;53.244;6.594;2022-09-21T11:30:18;4.50;;;0.98;;
52432;SDS011;38352;53.244;6.594;2022-09-21T11:32:58;5.30;;;1.38;;
52432;SDS011;38352;53.244;6.594;2022-09-21T11:38:11;7.32;;;2.17;;
52432;SDS011;38352;53.244;6.594;2022-09-21T11:48:15;6.65;;;0.75;;
52432;SDS011;38352;53.244;6.594;2022-09-21T11:50:57;5.18;;;1.83;;
52432;SDS011;38352;53.244;6.594;2022-09-21T11:58:53;3.25;;;1.20;;
52432;SDS011;38352;53.244;6.594;2022-09-21T12:14:34;4.65;;;1.15;;
52432;SDS011;38352;53.244;6.594;2022-09-21T12:22:00;4.25;;;1.10;;
52432;SDS011;38352;53.244;6.594;2022-09-21T12:24:30;6.55;;;1.00;;
52432;SDS011;38352;53.244;6.594;2022-09-21T12:27:00;2.97;;;0.70;;
52432;SDS011;38352;53.244;6.594;2022-09-21T12:29:30;6.53;;;1.30;;
52432;SDS011;38352;53.244;6.594;2022-09-21T12:34:30;4.60;;;0.90;;
52432;SDS011;38352;53.244;6.594;2022-09-21T12:39:32;4.43;;;0.80;;
52432;SDS011;38352;53.244;6.594;2022-09-21T12:42:24;3.55;;;0.90;;
52432;SDS011;38352;53.244;6.594;2022-09-21T12:44:49;3.13;;;0.70;;
52432;SDS011;38352;53.244;6.594;2022-09-21T12:47:42;1.58;;;0.70;;
52432;SDS011;38352;53.244;6.594;2022-09-21T12:50:12;4.95;;;1.30;;
52432;SDS011;38352;53.244;6.594;2022-09-21T12:52:39;3.72;;;1.00;;
52432;SDS011;38352;53.244;6.594;2022-09-21T12:55:31;3.30;;;0.82;;
52432;SDS011;38352;53.244;6.594;2022-09-21T13:00:47;2.72;;;0.75;;
52432;SDS011;38352;53.244;6.594;2022-09-21T13:03:24;3.33;;;1.00;;
52432;SDS011;38352;53.244;6.594;2022-09-21T13:06:10;4.82;;;0.88;;
52432;SDS011;38352;53.244;6.594;2022-09-21T13:08:40;6.13;;;1.17;;
52432;SDS011;38352;53.244;6.594;2022-09-21T13:11:07;4.78;;;0.90;;
52432;SDS011;38352;53.244;6.594;2022-09-21T13:16:00;3.47;;;1.20;;
52432;SDS011;38352;53.244;6.594;2022-09-21T13:18:29;5.15;;;1.08;;
52432;SDS011;38352;53.244;6.594;2022-09-21T13:20:58;7.07;;;0.90;;
52432;SDS011;38352;53.244;6.594;2022-09-21T13:23:26;4.97;;;0.90;;
52432;SDS011;38352;53.244;6.594;2022-09-21T13:26:03;3.53;;;1.10;;
52432;SDS011;38352;53.244;6.594;2022-09-21T13:36:39;6.65;;;1.58;;
52432;SDS011;38352;53.244;6.594;2022-09-21T13:41:34;6.93;;;0.93;;
52432;SDS011;38352;53.244;6.594;2022-09-21T13:44:04;4.93;;;1.10;;
52432;SDS011;38352;53.244;6.594;2022-09-21T13:51:48;5.22;;;0.93;;
52432;SDS011;38352;53.244;6.594;2022-09-21T13:54:15;4.45;;;0.98;;
52432;SDS011;38352;53.244;6.594;2022-09-21T13:56:41;3.70;;;1.20;;
52432;SDS011;38352;53.244;6.594;2022-09-21T13:59:15;5.47;;;1.13;;
52432;SDS011;38352;53.244;6.594;2022-09-21T14:01:44;3.22;;;0.90;;
52432;SDS011;38352;53.244;6.594;2022-09-21T14:04:19;3.95;;;0.80;;
52432;SDS011;38352;53.244;6.594;2022-09-21T14:06:47;18.67;;;1.27;;
52432;SDS011;38352;53.244;6.594;2022-09-21T14:09:28;3.22;;;0.70;;
52432;SDS011;38352;53.244;6.594;2022-09-21T14:12:00;2.88;;;1.00;;
52432;SDS011;38352;53.244;6.594;2022-09-21T14:14:28;4.00;;;0.98;;
52432;SDS011;38352;53.244;6.594;2022-09-21T14:16:57;3.53;;;1.15;;
52432;SDS011;38352;53.244;6.594;2022-09-21T14:27:18;5.75;;;1.42;;
52432;SDS011;38352;53.244;6.594;2022-09-21T14:29:56;4.82;;;0.95;;
52432;SDS011;38352;53.244;6.594;2022-09-21T14:32:25;3.97;;;1.33;;
52432;SDS011;38352;53.244;6.594;2022-09-21T14:34:54;4.28;;;1.10;;
52432;SDS011;38352;53.244;6.594;2022-09-21T14:39:52;5.82;;;1.33;;
52432;SDS011;38352;53.244;6.594;2022-09-21T14:42:20;5.10;;;1.17;;
52432;SDS011;38352;53.244;6.594;2022-09-21T14:44:55;4.25;;;1.30;;
52432;SDS011;38352;53.244;6.594;2022-09-21T14:47:31;6.05;;;1.20;;
52432;SDS011;38352;53.244;6.594;2022-09-21T14:50:23;6.13;;;1.27;;
52432;SDS011;38352;53.244;6.594;2022-09-21T15:00:35;6.10;;;1.10;;
52432;SDS011;38352;53.244;6.594;2022-09-21T15:05:30;3.00;;;0.95;;
52432;SDS011;38352;53.244;6.594;2022-09-21T15:18:59;3.60;;;0.90;;
52432;SDS011;38352;53.244;6.594;2022-09-21T15:21:29;5.80;;;1.08;;
52432;SDS011;38352;53.244;6.594;2022-09-21T15:23:57;3.13;;;1.08;;
52432;SDS011;38352;53.244;6.594;2022-09-21T15:26:28;5.00;;;1.35;;
52432;SDS011;38352;53.244;6.594;2022-09-21T15:28:56;4.70;;;1.17;;
52432;SDS011;38352;53.244;6.594;2022-09-21T15:31:23;5.03;;;1.55;;
52432;SDS011;38352;53.244;6.594;2022-09-21T15:33:50;5.63;;;1.25;;
52432;SDS011;38352;53.244;6.594;2022-09-21T15:36:23;3.42;;;0.93;;
52432;SDS011;38352;53.244;6.594;2022-09-21T15:38:51;5.15;;;1.35;;
52432;SDS011;38352;53.244;6.594;2022-09-21T15:44:32;4.82;;;1.75;;
52432;SDS011;38352;53.244;6.594;2022-09-21T15:46:53;5.65;;;1.40;;
52432;SDS011;38352;53.244;6.594;2022-09-21T15:49:24;4.93;;;1.40;;
52432;SDS011;38352;53.244;6.594;2022-09-21T15:51:56;6.03;;;1.42;;
52432;SDS011;38352;53.244;6.594;2022-09-21T15:54:31;5.65;;;1.33;;
52432;SDS011;38352;53.244;6.594;2022-09-21T15:56:59;5.10;;;1.83;;
52432;SDS011;38352;53.244;6.594;2022-09-21T15:59:25;8.60;;;2.13;;
52432;SDS011;38352;53.244;6.594;2022-09-21T16:01:54;7.55;;;2.30;;
52432;SDS011;38352;53.244;6.594;2022-09-21T16:04:23;9.70;;;2.65;;
52432;SDS011;38352;53.244;6.594;2022-09-21T16:07:36;4.65;;;1.30;;
52432;SDS011;38352;53.244;6.594;2022-09-21T16:09:39;4.55;;;1.55;;
52432;SDS011;38352;53.244;6.594;2022-09-21T16:14:49;9.40;;;2.83;;
52432;SDS011;38352;53.244;6.594;2022-09-21T16:17:25;5.70;;;2.03;;
52432;SDS011;38352;53.244;6.594;2022-09-21T16:22:28;9.23;;;2.80;;
52432;SDS011;38352;53.244;6.594;2022-09-21T16:24:56;5.32;;;2.33;;
52432;SDS011;38352;53.244;6.594;2022-09-21T16:27:23;3.95;;;1.60;;
52432;SDS011;38352;53.244;6.594;2022-09-21T16:29:50;4.72;;;1.10;;
52432;SDS011;38352;53.244;6.594;2022-09-21T16:34:43;5.78;;;1.05;;
52432;SDS011;38352;53.244;6.594;2022-09-21T16:39:52;3.42;;;1.00;;
52432;SDS011;38352;53.244;6.594;2022-09-21T16:42:19;6.15;;;1.52;;
52432;SDS011;38352;53.244;6.594;2022-09-21T16:44:46;7.22;;;1.30;;
52432;SDS011;38352;53.244;6.594;2022-09-21T16:47:19;7.47;;;1.63;;
52432;SDS011;38352;53.244;6.594;2022-09-21T16:49:56;4.13;;;1.27;;
52432;SDS011;38352;53.244;6.594;2022-09-21T16:52:26;6.07;;;2.00;;
52432;SDS011;38352;53.244;6.594;2022-09-21T16:54:52;5.60;;;1.73;;
52432;SDS011;38352;53.244;6.594;2022-09-21T16:57:21;4.05;;;1.40;;
52432;SDS011;38352;53.244;6.594;2022-09-21T16:59:47;3.60;;;1.42;;
52432;SDS011;38352;53.244;6.594;2022-09-21T17:02:14;1.55;;;0.82;;
52432;SDS011;38352;53.244;6.594;2022-09-21T17:04:41;8.98;;;1.10;;
52432;SDS011;38352;53.244;6.594;2022-09-21T17:07:14;4.43;;;1.70;;
52432;SDS011;38352;53.244;6.594;2022-09-21T17:09:41;6.80;;;1.10;;
52432;SDS011;38352;53.244;6.594;2022-09-21T17:12:11;6.00;;;1.20;;
52432;SDS011;38352;53.244;6.594;2022-09-21T17:14:37;4.75;;;1.25;;
52432;SDS011;38352;53.244;6.594;2022-09-21T17:17:05;4.40;;;1.08;;
52432;SDS011;38352;53.244;6.594;2022-09-21T17:19:32;6.35;;;1.17;;
52432;SDS011;38352;53.244;6.594;2022-09-21T17:21:59;2.95;;;1.20;;
52432;SDS011;38352;53.244;6.594;2022-09-21T17:24:26;2.35;;;0.75;;
52432;SDS011;38352;53.244;6.594;2022-09-21T17:26:52;3.85;;;1.17;;
52432;SDS011;38352;53.244;6.594;2022-09-21T17:29:20;5.65;;;1.50;;
52432;SDS011;38352;53.244;6.594;2022-09-21T17:31:47;5.55;;;1.15;;
52432;SDS011;38352;53.244;6.594;2022-09-21T17:34:21;4.23;;;1.27;;
52432;SDS011;38352;53.244;6.594;2022-09-21T17:36:48;4.43;;;1.25;;
52432;SDS011;38352;53.244;6.594;2022-09-21T17:39:14;3.58;;;1.25;;
52432;SDS011;38352;53.244;6.594;2022-09-21T17:41:56;6.82;;;1.88;;
52432;SDS011;38352;53.244;6.594;2022-09-21T17:47:00;7.82;;;2.58;;
52432;SDS011;38352;53.244;6.594;2022-09-21T17:49:29;8.77;;;1.65;;
52432;SDS011;38352;53.244;6.594;2022-09-21T17:51:55;6.00;;;2.05;;
52432;SDS011;38352;53.244;6.594;2022-09-21T17:54:40;3.85;;;1.90;;
52432;SDS011;38352;53.244;6.594;2022-09-21T17:59:53;4.43;;;1.27;;
52432;SDS011;38352;53.244;6.594;2022-09-21T18:02:22;5.10;;;1.60;;
52432;SDS011;38352;53.244;6.594;2022-09-21T18:04:49;6.82;;;1.35;;
52432;SDS011;38352;53.244;6.594;2022-09-21T18:07:16;5.25;;;1.60;;
52432;SDS011;38352;53.244;6.594;2022-09-21T18:09:43;3.65;;;1.33;;
52432;SDS011;38352;53.244;6.594;2022-09-21T18:14:52;3.63;;;1.77;;
52432;SDS011;38352;53.244;6.594;2022-09-21T18:20:12;4.00;;;1.52;;
52432;SDS011;38352;53.244;6.594;2022-09-21T18:25:21;5.03;;;1.60;;
52432;SDS011;38352;53.244;6.594;2022-09-21T18:27:50;4.20;;;1.85;;